Time;durP1;ratioP1;P1;durP2;ratioP2;P2;SDS_P1;SDS_P2;PMS_P1;PMS_P2;Temp;Humidity;BMP_temperature;BMP_pressure;BME280_temperature;BME280_humidity;BME280_pressure;Samples;Min_cycle;Max_cycle;Signal;HPM_P1;HPM_P2
2021/09/08 00:01:49;;;;;;;24.40;11.70;;;;;;;13.37;54.92;100654.54;26968;1224;3026564;-67
2021/09/08 00:04:18;;;;;;;27.90;11.80;;;;;;;13.36;55.35;100660.79;26957;1219;3048898;-68
2021/09/08 00:06:49;;;;;;;30.40;12.10;;;;;;;13.37;54.45;100658.08;26992;1219;3025818;-67
2021/09/08 00:09:18;;;;;;;33.30;12.40;;;;;;;13.40;54.37;100655.27;26968;1225;3028904;-68
2021/09/08 00:11:47;;;;;;;34.50;12.80;;;;;;;13.39;55.25;100657.43;26926;1224;3048593;-64
2021/09/08 00:14:17;;;;;;;33.30;12.30;;;;;;;13.37;54.94;100655.12;26935;1225;3026030;-71
2021/09/08 00:17:06;;;;;;;32.50;11.00;;;;;;;13.37;55.33;100652.82;26956;1221;3051373;-65
2021/09/08 00:19:55;;;;;;;26.40;11.80;;;;;;;13.38;55.12;100657.67;26961;1221;3071162;-66
2021/09/08 00:22:25;;;;;;;31.20;11.70;;;;;;;13.36;55.55;100658.30;26917;1225;3026098;-63
2021/09/08 00:24:55;;;;;;;29.70;12.60;;;;;;;13.34;55.12;100659.80;26947;1219;3026525;-67
2021/09/08 00:27:24;;;;;;;24.50;11.20;;;;;;;13.33;55.01;100660.39;26947;1221;3026091;-65
2021/09/08 00:29:53;;;;;;;28.20;10.90;;;;;;;13.31;54.92;100660.51;27002;1225;3026884;-63
2021/09/08 00:32:22;;;;;;;30.70;11.90;;;;;;;13.30;54.73;100659.14;26942;1224;3051766;-65
2021/09/08 00:34:52;;;;;;;28.70;11.40;;;;;;;13.29;54.54;100663.07;26955;1219;3026089;-66
2021/09/08 00:37:22;;;;;;;30.60;11.70;;;;;;;13.29;53.88;100664.83;26919;1225;3026242;-68
2021/09/08 00:39:52;;;;;;;19.90;9.80;;;;;;;13.29;53.82;100667.29;26926;1219;3026511;-67
2021/09/08 00:42:21;;;;;;;31.20;12.20;;;;;;;13.27;54.25;100665.44;26967;1224;3026432;-65
2021/09/08 00:44:52;;;;;;;28.40;11.40;;;;;;;13.21;55.42;100672.27;26949;1224;3056617;-69
2021/09/08 00:47:23;;;;;;;27.40;11.90;;;;;;;13.15;55.68;100668.73;26920;1225;3026694;-67
2021/09/08 00:49:54;;;;;;;28.60;11.50;;;;;;;13.13;55.96;100669.54;26941;1224;3025930;-65
2021/09/08 00:52:24;;;;;;;27.00;11.90;;;;;;;13.06;57.23;100675.19;26976;1224;3026822;-69
2021/09/08 00:54:56;;;;;;;30.50;10.90;;;;;;;12.97;58.03;100668.61;26941;1228;3028259;-68
2021/09/08 00:57:25;;;;;;;30.00;12.40;;;;;;;12.94;57.73;100670.33;26964;1224;3026112;-69
2021/09/08 01:00:15;;;;;;;26.70;11.60;;;;;;;12.90;58.53;100669.30;26969;1222;3052253;-68
2021/09/08 01:02:44;;;;;;;36.50;12.90;;;;;;;12.88;58.78;100672.41;26947;1224;3026395;-67
2021/09/08 01:05:14;;;;;;;38.30;14.30;;;;;;;12.89;59.54;100669.70;26989;1219;3026082;-65
2021/09/08 01:07:46;;;;;;;43.90;13.70;;;;;;;12.89;60.55;100669.14;27000;1220;3029377;-67
2021/09/08 01:10:15;;;;;;;34.40;14.10;;;;;;;12.89;60.55;100670.91;26929;1224;3026557;-67
2021/09/08 01:12:51;;;;;;;37.10;13.90;;;;;;;12.88;60.82;100670.84;27004;1225;3058869;-66
2021/09/08 01:15:20;;;;;;;38.70;15.20;;;;;;;12.88;61.03;100668.72;26950;1222;3029467;-65
2021/09/08 01:18:09;;;;;;;35.80;14.70;;;;;;;12.81;62.50;100669.08;27029;1225;3054846;-66
2021/09/08 01:20:39;;;;;;;39.60;14.50;;;;;;;12.75;62.78;100666.34;26992;1219;3026270;-63
2021/09/08 01:23:08;;;;;;;42.50;15.40;;;;;;;12.72;63.15;100661.80;26969;1224;3026075;-67
2021/09/08 01:25:37;;;;;;;39.80;15.30;;;;;;;12.73;62.71;100659.09;26964;1221;3051359;-70
2021/09/08 01:28:06;;;;;;;44.70;16.00;;;;;;;12.73;62.87;100660.66;27011;1221;3026168;-67
2021/09/08 01:30:35;;;;;;;34.90;14.00;;;;;;;12.74;63.17;100659.72;26994;1225;3053496;-67
2021/09/08 01:33:15;;;;;;;39.90;15.50;;;;;;;12.73;62.67;100658.73;26975;1222;3026169;-68
2021/09/08 01:35:44;;;;;;;37.80;13.80;;;;;;;12.76;62.77;100657.71;27007;1225;3050958;-65
2021/09/08 01:38:14;;;;;;;29.10;12.50;;;;;;;12.74;62.78;100658.13;26998;1225;3026349;-65
2021/09/08 01:40:44;;;;;;;24.90;11.60;;;;;;;12.74;61.79;100658.48;26930;1225;3071226;-65
2021/09/08 01:43:13;;;;;;;34.40;13.20;;;;;;;12.77;61.14;100658.00;27016;1219;3026412;-66
2021/09/08 01:45:43;;;;;;;31.80;13.00;;;;;;;12.77;61.36;100655.04;26895;1227;3053118;-65
2021/09/08 01:48:12;;;;;;;32.10;13.30;;;;;;;12.76;61.51;100653.30;26926;1220;3028449;-67
2021/09/08 01:50:41;;;;;;;35.90;12.70;;;;;;;12.76;62.77;100654.52;26946;1221;3026081;-70
2021/09/08 01:53:10;;;;;;;33.70;12.40;;;;;;;12.78;61.02;100650.77;27013;1223;3050217;-66
2021/09/08 01:55:39;;;;;;;26.20;10.10;;;;;;;12.79;60.21;100647.69;26949;1224;3026297;-68
2021/09/08 01:58:08;;;;;;;18.30;7.90;;;;;;;12.81;58.21;100643.73;26954;1220;3053191;-63
2021/09/08 02:00:37;;;;;;;28.00;9.30;;;;;;;12.82;57.50;100644.73;26965;1219;3026264;-64
2021/09/08 02:03:07;;;;;;;21.90;8.00;;;;;;;12.80;57.47;100642.91;26926;1221;3047935;-70
2021/09/08 02:05:36;;;;;;;20.60;7.80;;;;;;;12.80;56.47;100645.73;26958;1225;3028349;-64
2021/09/08 02:08:06;;;;;;;22.50;8.60;;;;;;;12.80;55.49;100643.27;26988;1224;3058581;-66
2021/09/08 02:10:35;;;;;;;14.60;6.80;;;;;;;12.83;54.81;100643.46;26938;1222;3026440;-65
2021/09/08 02:13:12;;;;;;;13.50;6.50;;;;;;;12.85;53.37;100646.52;27008;1221;3054314;-67
2021/09/08 02:15:59;;;;;;;14.40;6.90;;;;;;;12.86;53.95;100642.98;26955;1222;3058843;-65
2021/09/08 02:18:49;;;;;;;19.90;6.90;;;;;;;12.84;53.55;100641.84;26935;1225;3049879;-64
2021/09/08 02:21:18;;;;;;;15.70;6.40;;;;;;;12.84;52.68;100643.79;26921;1222;3025794;-66
2021/09/08 02:23:48;;;;;;;18.70;6.70;;;;;;;12.84;53.13;100645.02;26959;1222;3028938;-67
2021/09/08 02:26:18;;;;;;;21.70;6.30;;;;;;;12.84;52.43;100646.77;26961;1224;3026790;-65
2021/09/08 02:28:48;;;;;;;16.60;5.30;;;;;;;12.87;51.10;100643.45;26915;1225;3026488;-69
2021/09/08 02:31:17;;;;;;;12.80;4.80;;;;;;;12.88;50.52;100644.08;27016;1224;3050641;-68
2021/09/08 02:33:46;;;;;;;14.70;5.20;;;;;;;12.90;50.38;100640.80;26993;1219;3026607;-61
2021/09/08 02:36:15;;;;;;;7.20;4.10;;;;;;;12.90;49.37;100641.17;27100;1221;3052342;-66
2021/09/08 02:38:44;;;;;;;8.90;3.80;;;;;;;12.93;48.79;100641.54;27114;1221;3029128;-68
2021/09/08 02:41:13;;;;;;;16.30;5.10;;;;;;;12.94;48.76;100639.02;27022;1224;3049184;-62
2021/09/08 02:43:54;;;;;;;18.20;4.70;;;;;;;12.92;48.57;100639.47;26979;1224;3054173;-64
2021/09/08 02:46:23;;;;;;;14.30;5.20;;;;;;;12.92;48.67;100635.80;27026;1221;3025944;-63
2021/09/08 02:48:52;;;;;;;10.40;4.40;;;;;;;12.92;48.54;100637.70;27076;1225;3027804;-65
2021/09/08 02:51:22;;;;;;;11.50;4.50;;;;;;;12.96;47.99;100631.73;26924;1225;3054863;-63
2021/09/08 02:53:52;;;;;;;12.40;4.50;;;;;;;12.98;47.62;100635.16;27015;1224;3027942;-62
2021/09/08 02:56:21;;;;;;;10.90;4.50;;;;;;;12.96;47.75;100632.25;26980;1222;3026209;-67
2021/09/08 02:58:50;;;;;;;10.70;4.40;;;;;;;12.97;47.81;100639.24;26951;1225;3054390;-68
2021/09/08 03:01:19;;;;;;;9.70;5.40;;;;;;;12.97;47.25;100637.64;26998;1222;3026278;-66
2021/09/08 03:03:49;;;;;;;7.70;3.30;;;;;;;12.96;47.51;100637.73;26938;1225;3050773;-66
2021/09/08 03:06:18;;;;;;;6.30;3.30;;;;;;;12.98;46.48;100638.12;26966;1223;3026179;-67
2021/09/08 03:08:51;;;;;;;5.70;2.90;;;;;;;13.00;46.30;100641.73;26931;1221;3055028;-65
2021/09/08 03:11:23;;;;;;;8.70;3.30;;;;;;;13.01;45.72;100641.50;26980;1227;3026454;-66
2021/09/08 03:13:53;;;;;;;5.60;3.10;;;;;;;13.00;45.45;100639.10;26935;1225;3025995;-64
2021/09/08 03:16:23;;;;;;;6.90;3.50;;;;;;;12.99;46.03;100636.84;27005;1222;3026286;-66
2021/09/08 03:18:52;;;;;;;9.20;3.90;;;;;;;13.00;46.28;100640.67;27004;1229;3026042;-67
2021/09/08 03:21:21;;;;;;;7.60;3.30;;;;;;;12.98;46.60;100644.27;26904;1219;3026193;-65
2021/09/08 03:23:52;;;;;;;8.80;3.80;;;;;;;13.00;46.78;100642.24;26960;1224;3051958;-65
2021/09/08 03:26:21;;;;;;;9.50;3.60;;;;;;;12.99;47.14;100647.56;26959;1222;3026259;-65
2021/09/08 03:28:51;;;;;;;13.30;5.00;;;;;;;12.94;48.11;100652.55;26932;1225;3053957;-66
2021/09/08 03:31:20;;;;;;;10.50;4.30;;;;;;;12.90;48.96;100653.67;27033;1220;3026219;-63
2021/09/08 03:33:49;;;;;;;9.10;4.20;;;;;;;12.85;49.69;100651.46;26932;1227;3050978;-66
2021/09/08 03:36:18;;;;;;;13.00;5.80;;;;;;;12.80;50.42;100654.20;26931;1225;3027512;-67
2021/09/08 03:38:48;;;;;;;14.00;5.20;;;;;;;12.74;52.19;100657.46;27021;1225;3057461;-64
2021/09/08 03:41:17;;;;;;;13.80;5.50;;;;;;;12.72;51.41;100659.09;26947;1225;3026140;-63
2021/09/08 03:43:46;;;;;;;23.80;10.40;;;;;;;12.74;55.73;100658.68;26954;1225;3053946;-64
2021/09/08 03:46:15;;;;;;;25.40;11.30;;;;;;;12.69;60.39;100656.09;26938;1221;3026772;-66
2021/09/08 03:48:44;;;;;;;28.10;12.10;;;;;;;12.62;61.27;100655.07;26942;1223;3051788;-64
2021/09/08 03:51:15;;;;;;;31.10;12.40;;;;;;;12.61;61.33;100654.08;26892;1225;3026100;-66
2021/09/08 03:53:44;;;;;;;30.20;11.40;;;;;;;12.67;60.34;100649.90;27008;1221;3049003;-65
2021/09/08 03:56:13;;;;;;;28.30;10.40;;;;;;;12.71;60.94;100651.65;27027;1219;3027552;-66
2021/09/08 03:58:43;;;;;;;23.90;10.00;;;;;;;12.73;59.21;100649.77;26896;1224;3070523;-69
2021/09/08 04:01:12;;;;;;;32.30;9.50;;;;;;;12.81;58.19;100650.96;26991;1220;3026255;-66
2021/09/08 04:03:41;;;;;;;24.80;9.60;;;;;;;12.88;57.32;100652.85;26997;1224;3054717;-66
2021/09/08 04:06:10;;;;;;;27.90;9.50;;;;;;;12.96;57.18;100655.78;26962;1221;3026121;-67
2021/09/08 04:08:40;;;;;;;31.40;11.50;;;;;;;13.01;57.94;100648.69;26962;1225;3054658;-67
2021/09/08 04:11:09;;;;;;;23.20;10.30;;;;;;;13.06;58.06;100650.17;26953;1219;3026192;-64
2021/09/08 04:13:38;;;;;;;24.50;11.20;;;;;;;13.11;58.59;100655.75;26984;1225;3048506;-65
2021/09/08 04:16:07;;;;;;;28.10;11.10;;;;;;;13.16;58.15;100653.03;27026;1220;3026743;-70
2021/09/08 04:18:37;;;;;;;32.20;11.30;;;;;;;13.22;58.29;100652.16;27039;1219;3026296;-62
2021/09/08 04:21:06;;;;;;;25.20;9.80;;;;;;;13.25;58.85;100657.11;26893;1220;3026506;-64
2021/09/08 04:23:35;;;;;;;29.60;10.30;;;;;;;13.27;59.26;100658.23;27065;1221;3025847;-63
2021/09/08 04:26:04;;;;;;;25.60;11.10;;;;;;;13.28;60.06;100652.59;27000;1225;3052367;-63
2021/09/08 04:28:35;;;;;;;24.10;11.30;;;;;;;13.28;60.06;100650.65;26955;1221;3026492;-67
2021/09/08 04:31:04;;;;;;;25.50;11.30;;;;;;;13.30;60.25;100650.53;26964;1224;3027985;-67
2021/09/08 04:33:32;;;;;;;23.90;11.70;;;;;;;13.30;61.20;100655.48;26963;1224;3051289;-66
2021/09/08 04:36:02;;;;;;;25.00;11.00;;;;;;;13.29;61.70;100655.33;26920;1221;3026372;-68
2021/09/08 04:38:31;;;;;;;36.10;10.80;;;;;;;13.33;61.06;100654.58;27019;1221;3026378;-67
2021/09/08 04:41:00;;;;;;;22.10;10.90;;;;;;;13.40;60.55;100648.98;26945;1220;3026585;-64
2021/09/08 04:43:29;;;;;;;24.40;10.20;;;;;;;13.46;60.43;100649.69;26933;1227;3066817;-67
2021/09/08 04:45:59;;;;;;;32.40;11.90;;;;;;;13.50;60.31;100652.66;26934;1225;3027151;-65
2021/09/08 04:48:28;;;;;;;26.80;11.60;;;;;;;13.53;60.71;100652.70;26996;1221;3026018;-64
2021/09/08 04:50:57;;;;;;;24.50;11.30;;;;;;;13.52;60.91;100650.79;26967;1220;3070766;-65
2021/09/08 04:53:26;;;;;;;21.30;11.20;;;;;;;13.52;61.05;100653.63;27012;1220;3026404;-66
2021/09/08 04:55:57;;;;;;;24.10;11.20;;;;;;;13.53;60.95;100655.30;26955;1225;3050310;-68
2021/09/08 04:58:26;;;;;;;23.40;10.00;;;;;;;13.54;60.90;100663.18;26978;1225;3025871;-66
2021/09/08 05:00:55;;;;;;;22.60;9.40;;;;;;;13.62;59.56;100655.89;26997;1224;3026376;-66
2021/09/08 05:03:25;;;;;;;21.00;10.30;;;;;;;13.70;59.67;100657.94;26935;1220;3027708;-70
2021/09/08 05:05:56;;;;;;;25.70;11.50;;;;;;;13.76;59.35;100655.13;26938;1225;3069873;-65
2021/09/08 05:08:25;;;;;;;22.80;10.10;;;;;;;13.81;59.42;100658.55;26975;1219;3027625;-66
2021/09/08 05:10:54;;;;;;;24.80;10.60;;;;;;;13.87;58.91;100658.73;26969;1224;3050341;-67
2021/09/08 05:13:23;;;;;;;21.60;10.40;;;;;;;13.94;58.21;100662.02;26952;1222;3026942;-70
2021/09/08 05:15:52;;;;;;;21.40;9.40;;;;;;;14.03;57.56;100660.16;26949;1221;3026624;-64
2021/09/08 05:18:24;;;;;;;18.50;8.70;;;;;;;14.11;55.67;100659.56;27041;1221;3050939;-65
2021/09/08 05:20:52;;;;;;;17.70;8.90;;;;;;;14.22;54.94;100661.02;26930;1220;3026262;-67
2021/09/08 05:23:22;;;;;;;17.90;8.30;;;;;;;14.33;54.31;100660.23;26980;1227;3053813;-71
2021/09/08 05:25:51;;;;;;;19.20;8.00;;;;;;;14.43;53.61;100660.52;27010;1221;3026078;-68
2021/09/08 05:28:20;;;;;;;13.90;8.00;;;;;;;14.52;53.18;100660.17;26923;1225;3028004;-66
2021/09/08 05:30:49;;;;;;;26.10;8.50;;;;;;;14.62;52.03;100653.62;27013;1224;3054059;-70
2021/09/08 05:33:18;;;;;;;21.70;7.70;;;;;;;14.71;51.26;100654.68;27022;1220;3026343;-66
2021/09/08 05:35:47;;;;;;;15.90;7.10;;;;;;;14.82;51.08;100653.58;26915;1225;3047479;-69
2021/09/08 05:38:17;;;;;;;13.10;6.40;;;;;;;14.89;49.98;100655.92;26957;1224;3026074;-66
2021/09/08 05:40:48;;;;;;;20.00;6.40;;;;;;;14.99;49.39;100650.57;26969;1220;3025517;-63
2021/09/08 05:43:17;;;;;;;17.10;6.00;;;;;;;15.10;48.89;100646.21;26947;1220;3027722;-63
2021/09/08 05:45:46;;;;;;;14.00;6.20;;;;;;;15.21;47.99;100645.39;26967;1221;3026239;-63
2021/09/08 05:48:15;;;;;;;20.40;5.30;;;;;;;15.29;47.00;100642.59;26984;1224;3050333;-64
2021/09/08 05:50:44;;;;;;;12.40;5.40;;;;;;;15.37;46.42;100642.10;26977;1222;3027783;-64
2021/09/08 05:53:13;;;;;;;10.20;5.40;;;;;;;15.41;47.24;100644.65;26957;1224;3054577;-67
2021/09/08 05:55:42;;;;;;;14.30;6.00;;;;;;;15.44;47.70;100646.22;26972;1220;3026165;-65
2021/09/08 05:58:16;;;;;;;12.10;6.30;;;;;;;15.50;47.86;100645.20;26955;1225;3051549;-65
2021/09/08 06:00:45;;;;;;;20.20;6.10;;;;;;;15.60;47.62;100640.64;26955;1221;3026160;-68
2021/09/08 06:03:14;;;;;;;10.30;5.60;;;;;;;15.66;47.81;100640.48;26983;1224;3057892;-67
2021/09/08 06:05:43;;;;;;;19.20;5.50;;;;;;;15.74;47.72;100645.42;26978;1223;3028196;-64
2021/09/08 06:08:12;;;;;;;15.20;5.10;;;;;;;15.85;47.33;100644.80;26963;1220;3051549;-66
2021/09/08 06:10:41;;;;;;;12.00;5.40;;;;;;;15.94;46.09;100646.66;27000;1220;3026518;-67
2021/09/08 06:13:10;;;;;;;11.30;4.80;;;;;;;16.05;45.46;100646.47;26933;1219;3052520;-66
2021/09/08 06:15:40;;;;;;;14.90;4.20;;;;;;;16.15;43.45;100647.63;26922;1224;3025818;-69
2021/09/08 06:18:09;;;;;;;13.90;4.80;;;;;;;16.20;42.75;100650.33;26951;1222;3026104;-65
2021/09/08 06:20:38;;;;;;;23.70;4.80;;;;;;;16.30;43.05;100648.74;26983;1222;3025904;-66
2021/09/08 06:23:09;;;;;;;22.50;4.60;;;;;;;16.37;41.98;100645.45;26997;1221;3050450;-67
2021/09/08 06:25:39;;;;;;;21.30;4.00;;;;;;;16.45;40.32;100647.40;26981;1225;3026453;-62
2021/09/08 06:28:08;;;;;;;14.30;3.50;;;;;;;16.56;39.82;100647.56;26973;1220;3026168;-64
2021/09/08 06:30:36;;;;;;;6.70;2.60;;;;;;;16.66;38.92;100646.91;27039;1220;3051692;-71
2021/09/08 06:33:05;;;;;;;12.00;2.50;;;;;;;16.75;38.19;100648.59;26997;1222;3026350;-64
2021/09/08 06:35:35;;;;;;;8.30;2.90;;;;;;;16.83;38.62;100646.33;27042;1221;3051258;-69
2021/09/08 06:38:05;;;;;;;9.80;2.70;;;;;;;16.85;37.84;100647.54;27044;1220;3025861;-65
2021/09/08 06:40:34;;;;;;;3.80;2.10;;;;;;;16.89;37.87;100648.75;26957;1224;3050505;-65
2021/09/08 06:43:03;;;;;;;7.30;2.20;;;;;;;16.97;37.56;100649.98;26976;1219;3028806;-66
2021/09/08 06:45:32;;;;;;;3.90;1.80;;;;;;;17.04;36.24;100649.86;26947;1220;3070360;-67
2021/09/08 06:48:01;;;;;;;5.60;2.00;;;;;;;17.11;35.60;100652.74;26974;1220;3026331;-65
2021/09/08 06:50:31;;;;;;;2.40;1.60;;;;;;;17.18;34.25;100650.15;26946;1220;3053596;-64
2021/09/08 06:53:00;;;;;;;5.50;1.70;;;;;;;17.28;35.08;100650.34;26963;1220;3026084;-67
2021/09/08 06:55:30;;;;;;;5.40;1.70;;;;;;;17.37;34.81;100646.16;26963;1227;3054792;-63
2021/09/08 06:57:59;;;;;;;4.30;1.60;;;;;;;17.46;34.97;100642.66;27007;1220;3026886;-66
2021/09/08 07:00:28;;;;;;;4.40;1.40;;;;;;;17.53;34.47;100641.67;26914;1222;3048445;-65
2021/09/08 07:02:56;;;;;;;7.80;1.80;;;;;;;17.64;34.26;100640.19;26959;1221;3026594;-65
2021/09/08 07:05:25;;;;;;;7.70;1.80;;;;;;;17.73;33.35;100638.27;26955;1224;3055044;-66
2021/09/08 07:07:54;;;;;;;2.30;1.50;;;;;;;17.78;33.64;100639.34;27004;1220;3026495;-68
2021/09/08 07:10:40;;;;;;;5.70;1.80;;;;;;;17.85;32.98;100638.64;26997;1224;3052039;-71
2021/09/08 07:13:09;;;;;;;5.40;1.80;;;;;;;17.90;33.30;100637.94;26954;1220;3026398;-62
2021/09/08 07:15:39;;;;;;;6.70;1.50;;;;;;;18.02;33.05;100641.59;26982;1225;3027418;-65
2021/09/08 07:18:08;;;;;;;4.90;1.50;;;;;;;18.12;32.24;100641.18;26920;1220;3027648;-64
2021/09/08 07:20:40;;;;;;;5.40;1.50;;;;;;;18.20;32.47;100638.47;26960;1220;3054994;-67
2021/09/08 07:23:09;;;;;;;4.00;1.60;;;;;;;18.33;32.17;100638.95;26971;1220;3025886;-66
2021/09/08 07:25:38;;;;;;;3.90;1.60;;;;;;;18.31;31.72;100635.89;26983;1225;3028821;-67
2021/09/08 07:28:07;;;;;;;2.50;1.30;;;;;;;18.24;31.24;100632.80;26978;1225;3058275;-66
2021/09/08 07:30:37;;;;;;;4.80;1.50;;;;;;;18.27;31.80;100633.34;26962;1220;3027301;-64
2021/09/08 07:33:06;;;;;;;4.70;1.50;;;;;;;18.39;30.85;100632.81;26915;1222;3026534;-65
2021/09/08 07:35:35;;;;;;;3.40;1.00;;;;;;;18.51;31.30;100631.20;27007;1219;3057764;-69
2021/09/08 07:38:04;;;;;;;5.20;1.50;;;;;;;18.58;31.01;100629.20;26956;1220;3028015;-64
2021/09/08 07:40:33;;;;;;;2.00;1.10;;;;;;;18.64;30.84;100628.63;26944;1224;3054144;-66
2021/09/08 07:43:02;;;;;;;3.30;1.30;;;;;;;18.72;30.00;100624.61;26974;1219;3026798;-65
2021/09/08 07:45:31;;;;;;;3.10;1.40;;;;;;;18.76;29.69;100624.64;27001;1219;3054058;-65
2021/09/08 07:48:00;;;;;;;5.60;1.50;;;;;;;18.88;30.47;100622.73;26953;1220;3028051;-64
2021/09/08 07:50:28;;;;;;;3.20;1.20;;;;;;;18.84;30.18;100619.27;26963;1221;3048802;-65
2021/09/08 07:52:57;;;;;;;3.40;1.60;;;;;;;18.90;30.26;100622.41;26972;1219;3029022;-65
2021/09/08 07:55:26;;;;;;;2.30;1.30;;;;;;;19.00;30.92;100620.02;26893;1222;3070133;-65
2021/09/08 07:57:55;;;;;;;3.30;1.50;;;;;;;19.13;30.53;100621.18;26968;1219;3029375;-64
2021/09/08 08:00:24;;;;;;;2.70;1.50;;;;;;;19.22;30.07;100616.89;26951;1220;3052305;-66
2021/09/08 08:02:54;;;;;;;2.10;1.30;;;;;;;19.38;30.16;100618.30;26972;1227;3027106;-63
2021/09/08 08:05:22;;;;;;;5.40;1.60;;;;;;;19.43;29.91;100614.56;26988;1219;3028280;-66
2021/09/08 08:07:52;;;;;;;6.80;1.40;;;;;;;19.46;29.69;100613.41;26952;1222;3053594;-65
2021/09/08 08:10:21;;;;;;;4.80;1.50;;;;;;;19.51;29.87;100621.92;26935;1222;3025922;-69
2021/09/08 08:12:51;;;;;;;3.10;1.30;;;;;;;19.57;29.94;100623.77;26947;1225;3055338;-68
2021/09/08 08:15:20;;;;;;;2.10;1.40;;;;;;;19.68;29.63;100614.52;26942;1222;3026083;-68
2021/09/08 08:17:49;;;;;;;6.20;1.40;;;;;;;19.73;29.57;100614.95;26995;1220;3049008;-68
2021/09/08 08:20:18;;;;;;;5.60;1.60;;;;;;;19.64;28.65;100613.42;26970;1219;3026038;-68
2021/09/08 08:22:47;;;;;;;4.90;1.40;;;;;;;19.64;28.82;100610.38;26963;1221;3026582;-67
2021/09/08 08:25:18;;;;;;;3.20;1.40;;;;;;;19.74;29.02;100609.21;26929;1220;3048353;-65
2021/09/08 08:27:48;;;;;;;5.00;1.70;;;;;;;19.86;29.68;100612.54;26969;1222;3026182;-68
2021/09/08 08:30:17;;;;;;;6.10;1.60;;;;;;;19.88;29.21;100610.64;26963;1220;3026703;-66
2021/09/08 08:32:46;;;;;;;4.80;1.10;;;;;;;19.88;29.44;100607.02;26953;1220;3026385;-67
2021/09/08 08:35:16;;;;;;;2.30;1.40;;;;;;;19.98;28.71;100606.59;26900;1222;3054552;-65
2021/09/08 08:37:44;;;;;;;2.80;1.50;;;;;;;20.04;28.65;100602.38;26975;1219;3025948;-66
2021/09/08 08:40:14;;;;;;;4.70;1.60;;;;;;;20.07;28.98;100599.25;26944;1222;3048559;-68
2021/09/08 08:42:44;;;;;;;5.00;1.60;;;;;;;20.02;28.15;100596.46;26976;1219;3026448;-66
2021/09/08 08:45:13;;;;;;;3.80;1.70;;;;;;;20.07;28.00;100599.45;26952;1228;3026352;-65
2021/09/08 08:47:42;;;;;;;3.30;1.60;;;;;;;20.09;28.79;100598.73;26965;1219;3048624;-68
2021/09/08 08:50:13;;;;;;;2.40;1.40;;;;;;;20.18;28.82;100598.50;27022;1219;3025849;-69
2021/09/08 08:52:42;;;;;;;7.30;1.70;;;;;;;20.16;28.68;100594.64;26964;1220;3055027;-65
2021/09/08 08:55:10;;;;;;;6.40;1.90;;;;;;;19.97;28.98;100588.54;26917;1219;3026195;-69
2021/09/08 08:57:40;;;;;;;4.40;2.00;;;;;;;20.06;28.69;100584.77;26979;1219;3053130;-66
2021/09/08 09:00:10;;;;;;;4.80;1.60;;;;;;;20.20;28.75;100582.67;26948;1220;3026338;-70
2021/09/08 09:02:40;;;;;;;5.60;1.50;;;;;;;20.17;28.70;100582.07;26941;1220;3026116;-68
2021/09/08 09:05:09;;;;;;;4.80;1.70;;;;;;;20.24;28.98;100578.30;26928;1220;3026235;-67
2021/09/08 09:07:44;;;;;;;3.40;1.70;;;;;;;20.19;28.07;100577.30;26944;1221;3026486;-65
2021/09/08 09:10:13;;;;;;;3.30;1.60;;;;;;;20.30;27.75;100572.86;26935;1227;3048926;-68
2021/09/08 09:12:44;;;;;;;5.40;2.00;;;;;;;20.43;27.98;100571.59;26942;1227;3026272;-65
2021/09/08 09:15:18;;;;;;;4.30;2.60;;;;;;;20.51;27.57;100566.98;26900;1221;3027524;-64
2021/09/08 09:17:47;;;;;;;10.00;3.00;;;;;;;20.57;27.91;100568.24;26995;1222;3068331;-66
2021/09/08 09:20:29;;;;;;;7.20;2.20;;;;;;;20.65;27.86;100564.75;27042;1222;3026548;-64
2021/09/08 09:23:00;;;;;;;9.60;2.00;;;;;;;20.84;27.91;100559.02;26943;1220;3050747;-66
2021/09/08 09:25:35;;;;;;;11.30;2.30;;;;;;;20.92;27.48;100554.77;26965;1220;3026036;-65
2021/09/08 09:28:07;;;;;;;5.40;2.10;;;;;;;20.77;26.69;100554.83;26954;1219;3047001;-62
2021/09/08 09:30:41;;;;;;;6.60;2.10;;;;;;;20.64;26.67;100557.66;26941;1219;3026293;-67
2021/09/08 09:33:11;;;;;;;5.90;1.70;;;;;;;20.52;26.72;100552.23;26924;1221;3052367;-66
2021/09/08 09:35:40;;;;;;;6.10;1.90;;;;;;;20.65;26.85;100549.28;26982;1222;3027106;-68
2021/09/08 09:38:09;;;;;;;9.90;1.90;;;;;;;20.79;26.80;100549.09;26981;1220;3053443;-65
2021/09/08 09:40:38;;;;;;;7.60;1.80;;;;;;;20.92;26.76;100549.20;26951;1222;3026095;-69
2021/09/08 09:43:09;;;;;;;5.20;2.00;;;;;;;21.10;27.04;100546.83;26939;1221;3048280;-66
2021/09/08 09:45:40;;;;;;;8.40;2.20;;;;;;;21.19;26.35;100548.31;26936;1219;3027070;-64
2021/09/08 09:48:09;;;;;;;6.90;2.30;;;;;;;21.17;26.74;100539.44;26941;1222;3026441;-65
2021/09/08 09:50:39;;;;;;;9.90;2.30;;;;;;;21.26;26.80;100538.95;26940;1220;3026529;-64
2021/09/08 09:53:08;;;;;;;5.20;1.90;;;;;;;21.37;26.62;100532.81;26938;1219;3050662;-67
2021/09/08 09:55:37;;;;;;;9.10;2.10;;;;;;;21.54;26.18;100541.68;26932;1219;3026222;-69
2021/09/08 09:58:06;;;;;;;6.10;2.30;;;;;;;21.52;26.10;100535.80;27078;1222;3048206;-67
2021/09/08 10:00:36;;;;;;;12.30;2.50;;;;;;;21.59;26.45;100536.58;26910;1220;3027676;-68
2021/09/08 10:03:07;;;;;;;8.10;1.80;;;;;;;21.70;25.98;100533.69;26905;1219;3068027;-67
2021/09/08 10:05:36;;;;;;;5.70;2.30;;;;;;;21.48;25.67;100538.66;26921;1229;3026390;-66
2021/09/08 10:08:05;;;;;;;6.40;2.50;;;;;;;21.42;25.69;100538.45;26947;1220;3026007;-65
2021/09/08 10:10:36;;;;;;;8.00;2.50;;;;;;;21.38;25.85;100538.59;26905;1226;3067969;-65
2021/09/08 10:13:13;;;;;;;5.40;2.40;;;;;;;21.47;25.58;100539.61;26906;1222;3026864;-69
2021/09/08 10:15:43;;;;;;;10.80;2.60;;;;;;;21.56;25.49;100537.98;26925;1219;3054818;-62
2021/09/08 10:18:14;;;;;;;8.10;2.80;;;;;;;21.66;25.54;100533.52;26916;1222;3027497;-62
2021/09/08 10:20:46;;;;;;;5.60;2.20;;;;;;;21.65;25.70;100526.48;26963;1220;3055200;-65
2021/09/08 10:23:16;;;;;;;9.20;2.70;;;;;;;21.73;26.42;100526.11;26917;1222;3026582;-64
2021/09/08 10:25:48;;;;;;;8.00;2.70;;;;;;;21.88;25.70;100522.23;26899;1220;3053791;-67
2021/09/08 10:28:18;;;;;;;7.10;2.90;;;;;;;21.82;25.33;100521.66;26961;1220;3026352;-67
2021/09/08 10:30:47;;;;;;;6.70;2.70;;;;;;;21.98;25.25;100518.42;26920;1220;3027144;-66
2021/09/08 10:33:16;;;;;;;13.90;2.90;;;;;;;22.09;25.79;100511.91;26939;1221;3026225;-64
2021/09/08 10:35:46;;;;;;;6.50;2.80;;;;;;;22.18;25.94;100515.70;26950;1220;3054847;-65
2021/09/08 10:38:17;;;;;;;9.60;2.90;;;;;;;22.10;25.53;100508.41;26926;1221;3026083;-61
2021/09/08 10:40:47;;;;;;;12.00;2.80;;;;;;;22.33;25.32;100508.98;26983;1223;3052079;-65
2021/09/08 10:43:16;;;;;;;9.30;3.20;;;;;;;22.21;24.79;100511.48;26911;1220;3026526;-64
2021/09/08 10:45:50;;;;;;;11.30;3.00;;;;;;;22.04;25.03;100504.34;26882;1222;3025919;-67
2021/09/08 10:48:39;;;;;;;4.80;2.70;;;;;;;22.26;24.99;100490.70;26947;1227;3052382;-64
2021/09/08 10:51:20;;;;;;;11.70;3.20;;;;;;;22.42;25.88;100487.25;26941;1221;3058862;-64
2021/09/08 10:54:05;;;;;;;11.10;3.00;;;;;;;22.52;25.42;100487.39;26936;1220;3049591;-67
2021/09/08 10:56:45;;;;;;;8.50;2.60;;;;;;;22.68;25.17;100482.82;26957;1222;3053751;-66
2021/09/08 10:59:14;;;;;;;9.30;3.20;;;;;;;22.74;25.43;100479.92;26932;1221;3051181;-65
2021/09/08 11:01:44;;;;;;;12.40;3.30;;;;;;;22.70;25.65;100480.70;26943;1224;3026631;-66
2021/09/08 11:04:13;;;;;;;11.60;3.20;;;;;;;22.79;25.42;100474.52;26992;1219;3026048;-64
2021/09/08 11:06:48;;;;;;;11.60;3.50;;;;;;;22.84;25.62;100469.19;27019;1219;3049932;-64
2021/09/08 11:09:17;;;;;;;9.40;3.30;;;;;;;22.93;24.75;100465.65;27074;1218;3069932;-66
2021/09/08 11:11:59;;;;;;;11.10;3.00;;;;;;;23.00;24.58;100465.49;26969;1219;3026140;-67
2021/09/08 11:15:03;;;;;;;12.80;3.30;;;;;;;23.18;24.28;100468.41;27006;1218;3054192;-66
2021/09/08 11:17:32;;;;;;;14.10;3.10;;;;;;;23.19;24.28;100468.48;26874;1230;3051248;-66